Time;durP1;ratioP1;P1;durP2;ratioP2;P2;SDS_P1;SDS_P2;PMS_P1;PMS_P2;Temp;Humidity;BMP_temperature;BMP_pressure;BME280_temperature;BME280_humidity;BME280_pressure;Samples;Min_cycle;Max_cycle;Signal;HPM_P1;HPM_P2
2023/03/19 00:00:22;;;;;;;22.42;14.40;;;;;;;8.21;100.00;98178.75;4157135;28;20842;-74
2023/03/19 00:02:23;;;;;;;23.58;13.73;;;;;;;8.18;100.00;98174.75;4157235;28;20466;-74
2023/03/19 00:04:25;;;;;;;18.95;12.32;;;;;;;8.21;100.00;98170.47;4157434;28;20604;-74
2023/03/19 00:06:25;;;;;;;21.87;13.03;;;;;;;8.21;100.00;98167.72;4157071;28;20040;-73
2023/03/19 00:08:25;;;;;;;19.73;12.93;;;;;;;8.18;100.00;98174.75;4157234;28;20038;-74
2023/03/19 00:10:26;;;;;;;17.52;12.07;;;;;;;8.14;100.00;98179.41;4156971;28;20119;-73
2023/03/19 00:12:26;;;;;;;18.17;11.23;;;;;;;8.11;100.00;98174.66;4157274;28;20084;-74
2023/03/19 00:14:26;;;;;;;13.57;9.48;;;;;;;8.14;100.00;98165.63;4157060;28;20169;-74
2023/03/19 00:16:27;;;;;;;12.65;9.18;;;;;;;8.20;100.00;98175.19;4156866;28;20140;-74
2023/03/19 00:18:27;;;;;;;14.77;9.60;;;;;;;8.23;100.00;98174.44;4158174;28;20076;-74
2023/03/19 00:20:27;;;;;;;19.05;12.13;;;;;;;8.25;100.00;98174.06;4156937;28;20142;-73
2023/03/19 00:22:28;;;;;;;20.05;11.70;;;;;;;8.22;100.00;98169.31;4156807;28;20103;-73
2023/03/19 00:24:29;;;;;;;22.48;13.35;;;;;;;8.24;100.00;98176.03;4156921;28;20342;-73
2023/03/19 00:26:32;;;;;;;15.07;10.63;;;;;;;8.24;100.00;98175.22;4156656;28;20379;-73
2023/03/19 00:28:32;;;;;;;17.38;11.43;;;;;;;8.25;100.00;98183.13;4157395;28;20041;-73
2023/03/19 00:30:32;;;;;;;22.00;11.23;;;;;;;8.27;100.00;98180.00;4156745;28;20154;-73
2023/03/19 00:32:34;;;;;;;14.95;10.93;;;;;;;8.27;100.00;98180.78;4156731;28;20492;-74
2023/03/19 00:34:34;;;;;;;16.92;10.57;;;;;;;8.22;100.00;98181.13;4156903;28;20037;-74
2023/03/19 00:36:36;;;;;;;14.68;9.52;;;;;;;8.20;100.00;98191.72;4156887;28;20045;-73
2023/03/19 00:38:36;;;;;;;16.40;10.02;;;;;;;8.18;100.00;98192.06;4156895;28;20160;-73
2023/03/19 00:40:37;;;;;;;11.63;9.10;;;;;;;8.14;100.00;98188.47;4157125;28;20457;-73
2023/03/19 00:42:37;;;;;;;16.23;10.07;;;;;;;8.16;100.00;98194.41;4156267;28;20049;-73
2023/03/19 00:44:37;;;;;;;13.80;9.52;;;;;;;8.14;100.00;98193.19;4156702;28;20065;-73
2023/03/19 00:46:38;;;;;;;11.90;9.35;;;;;;;8.12;100.00;98188.06;4157156;28;20065;-73
2023/03/19 00:48:38;;;;;;;15.65;10.00;;;;;;;8.12;100.00;98193.56;4156722;28;20068;-74
2023/03/19 00:50:39;;;;;;;13.95;9.95;;;;;;;8.17;100.00;98192.44;4156809;28;20041;-73
2023/03/19 00:52:40;;;;;;;13.30;10.43;;;;;;;8.10;100.00;98195.88;4156089;28;20140;-74
2023/03/19 00:54:40;;;;;;;17.35;9.93;;;;;;;8.11;100.00;98199.44;4156586;28;20034;-73
2023/03/19 00:56:41;;;;;;;13.98;9.02;;;;;;;8.14;100.00;98205.00;4155202;28;20048;-73
2023/03/19 00:58:41;;;;;;;11.15;8.50;;;;;;;8.13;100.00;98191.59;4156614;28;20037;-73
2023/03/19 01:00:41;;;;;;;15.30;8.57;;;;;;;8.17;100.00;98196.00;4157376;28;20053;-74
2023/03/19 01:02:42;;;;;;;11.45;8.73;;;;;;;8.16;100.00;98191.66;4155081;28;20053;-73
2023/03/19 01:04:42;;;;;;;14.68;9.25;;;;;;;8.23;100.00;98193.72;4156831;28;20466;-73
2023/03/19 01:06:43;;;;;;;13.50;9.07;;;;;;;8.24;100.00;98195.31;4156958;28;20048;-73
2023/03/19 01:08:43;;;;;;;17.23;9.85;;;;;;;8.24;100.00;98195.31;4156305;28;20163;-73
2023/03/19 01:10:44;;;;;;;14.60;9.38;;;;;;;8.26;100.00;98197.69;4157016;28;20044;-73
2023/03/19 01:12:45;;;;;;;12.18;8.77;;;;;;;8.26;100.00;98197.69;4156024;28;20475;-74
2023/03/19 01:14:45;;;;;;;15.15;9.02;;;;;;;8.29;100.00;98210.75;4156671;28;20134;-73
2023/03/19 01:16:45;;;;;;;11.65;8.80;;;;;;;8.30;100.00;98202.13;4156609;28;20103;-73
2023/03/19 01:18:46;;;;;;;14.65;9.00;;;;;;;8.34;100.00;98204.91;4156736;28;20425;-73
2023/03/19 01:20:46;;;;;;;15.73;9.82;;;;;;;8.38;100.00;98195.59;4157208;28;20041;-73
2023/03/19 01:22:47;;;;;;;13.57;9.40;;;;;;;8.39;100.00;98207.41;4155595;28;20054;-74
2023/03/19 01:24:47;;;;;;;14.55;9.23;;;;;;;8.35;100.00;98207.31;4156324;28;20045;-73
2023/03/19 01:26:47;;;;;;;16.42;9.85;;;;;;;8.30;100.00;98206.84;4155668;28;20053;-73
2023/03/19 01:28:48;;;;;;;15.52;9.95;;;;;;;8.31;100.00;98211.19;4157944;28;20083;-73
2023/03/19 01:30:48;;;;;;;12.77;8.60;;;;;;;8.30;100.00;98213.13;4157193;28;20513;-73
2023/03/19 01:32:49;;;;;;;12.15;8.95;;;;;;;8.31;100.00;98211.97;4157326;28;20056;-73
2023/03/19 01:34:49;;;;;;;15.35;9.68;;;;;;;8.32;100.00;98208.03;4157237;28;20033;-73
2023/03/19 01:36:49;;;;;;;14.45;9.73;;;;;;;8.34;100.00;98210.44;4156321;28;20124;-73
2023/03/19 01:38:50;;;;;;;15.98;9.75;;;;;;;8.33;100.00;98211.59;4158088;28;20045;-73
2023/03/19 01:40:51;;;;;;;15.07;9.98;;;;;;;8.35;100.00;98214.81;4157140;28;20045;-73
2023/03/19 01:43:11;;;;;;;15.85;9.55;;;;;;;8.34;100.00;98222.25;4156787;28;20045;-73
2023/03/19 01:45:34;;;;;;;15.95;10.20;;;;;;;8.36;100.00;98211.69;4157965;28;20111;-73
2023/03/19 01:47:40;;;;;;;15.52;10.40;;;;;;;8.34;100.00;98199.41;4157543;28;20474;-74
2023/03/19 01:49:44;;;;;;;15.85;10.65;;;;;;;8.32;100.00;98212.75;4157478;28;20347;-74
2023/03/19 01:51:46;;;;;;;13.27;8.48;;;;;;;8.32;100.00;98196.22;4156714;28;20386;-74
2023/03/19 01:53:52;;;;;;;14.57;8.50;;;;;;;8.33;100.00;98206.88;4157223;28;20385;-74
2023/03/19 01:55:58;;;;;;;15.05;9.10;;;;;;;8.31;100.00;98195.44;4157118;28;20393;-74
2023/03/19 01:58:00;;;;;;;13.15;8.80;;;;;;;8.30;100.00;98193.84;4157472;28;20045;-74
2023/03/19 02:00:03;;;;;;;11.93;8.43;;;;;;;8.27;100.00;98197.31;4157248;28;20088;-74
2023/03/19 02:02:24;;;;;;;15.13;9.13;;;;;;;8.24;100.00;98200.03;4156481;28;20076;-73
2023/03/19 02:04:26;;;;;;;15.25;9.27;;;;;;;8.20;100.00;98200.00;4156392;28;20045;-73
2023/03/19 02:06:29;;;;;;;15.02;9.57;;;;;;;8.21;100.00;98200.78;4156783;28;20437;-73
2023/03/19 02:08:30;;;;;;;14.70;10.25;;;;;;;8.12;100.00;98206.53;4157467;28;20381;-74
2023/03/19 02:10:31;;;;;;;14.93;10.18;;;;;;;8.06;100.00;98219.03;4157365;28;20033;-74
2023/03/19 02:12:31;;;;;;;12.95;9.82;;;;;;;8.04;100.00;98215.84;4156167;28;20363;-73
2023/03/19 02:14:32;;;;;;;12.80;9.23;;;;;;;7.99;100.00;98207.88;4159495;28;20049;-74
2023/03/19 02:16:32;;;;;;;12.02;8.90;;;;;;;7.97;100.00;98210.22;4160009;28;20371;-74
2023/03/19 02:18:33;;;;;;;15.45;9.20;;;;;;;7.96;100.00;98211.38;4160386;28;20042;-74
2023/03/19 02:20:42;;;;;;;11.35;8.57;;;;;;;7.94;100.00;98203.47;4159551;28;20061;-74
2023/03/19 02:23:06;;;;;;;13.75;9.65;;;;;;;7.91;100.00;98204.22;4158788;28;20049;-74
2023/03/19 02:25:26;;;;;;;12.68;8.30;;;;;;;7.90;100.00;98205.38;4158990;28;20425;-74
2023/03/19 02:27:26;;;;;;;12.65;9.02;;;;;;;7.85;100.00;98194.66;4159554;28;20565;-74
2023/03/19 02:29:27;;;;;;;13.13;9.02;;;;;;;7.81;100.00;98191.84;4159968;28;20084;-74
2023/03/19 02:31:27;;;;;;;12.93;8.68;;;;;;;7.84;100.00;98190.31;4159787;28;20389;-74
2023/03/19 02:33:27;;;;;;;12.30;9.07;;;;;;;7.91;100.00;98198.69;4159022;28;20042;-74
2023/03/19 02:35:32;;;;;;;11.57;9.18;;;;;;;7.85;100.00;98191.91;4159590;28;20389;-74
2023/03/19 02:37:32;;;;;;;14.23;9.50;;;;;;;7.78;100.00;98194.53;4159346;28;20040;-74
2023/03/19 02:39:48;;;;;;;12.68;8.93;;;;;;;7.75;100.00;98203.53;4159355;28;20045;-73
2023/03/19 02:41:52;;;;;;;13.32;8.77;;;;;;;7.64;100.00;98206.09;4158464;28;20050;-74
2023/03/19 02:43:53;;;;;;;14.25;8.98;;;;;;;7.56;100.00;98213.41;4158663;28;20034;-73
2023/03/19 02:45:54;;;;;;;15.00;9.68;;;;;;;7.50;100.00;98200.31;4159586;28;20354;-74
2023/03/19 02:47:55;;;;;;;13.95;8.38;;;;;;;7.47;100.00;98198.28;4159752;28;20619;-74
2023/03/19 02:49:55;;;;;;;14.48;9.73;;;;;;;7.45;100.00;98204.16;4159125;28;20037;-73
2023/03/19 02:51:56;;;;;;;13.20;9.38;;;;;;;7.39;100.00;98210.31;4159317;28;20111;-74
2023/03/19 02:53:56;;;;;;;13.60;8.80;;;;;;;7.31;100.00;98210.19;4158020;28;20544;-74
2023/03/19 02:55:56;;;;;;;13.05;9.15;;;;;;;7.25;100.00;98210.81;4159526;28;20349;-73
2023/03/19 02:57:57;;;;;;;15.55;9.43;;;;;;;7.24;100.00;98204.53;4159600;28;20564;-73
2023/03/19 02:59:57;;;;;;;14.35;9.55;;;;;;;7.14;100.00;98212.56;4191096;28;20041;-73
2023/03/19 03:01:57;;;;;;;15.10;10.00;;;;;;;7.02;100.00;98211.53;4159346;28;20046;-73
2023/03/19 03:03:58;;;;;;;15.70;9.35;;;;;;;6.94;100.00;98215.28;4157829;28;20057;-74
2023/03/19 03:05:58;;;;;;;18.88;9.77;;;;;;;6.91;100.00;98212.47;4159123;28;20388;-74
2023/03/19 03:07:59;;;;;;;15.00;9.80;;;;;;;6.82;100.00;98215.44;4159680;28;20140;-73
2023/03/19 03:09:59;;;;;;;19.02;10.57;;;;;;;6.76;100.00;98217.66;4159043;28;20342;-73
2023/03/19 03:12:00;;;;;;;16.00;10.45;;;;;;;6.72;100.00;98219.53;4158904;28;20045;-73
2023/03/19 03:14:00;;;;;;;16.92;10.25;;;;;;;6.61;100.00;98210.25;4158365;28;20041;-73
2023/03/19 03:16:01;;;;;;;16.45;10.82;;;;;;;6.59;100.00;98211.75;4159233;28;20124;-73
2023/03/19 03:18:01;;;;;;;16.58;10.63;;;;;;;6.59;100.00;98212.56;4158731;28;20090;-73
2023/03/19 03:20:02;;;;;;;17.75;10.55;;;;;;;6.58;100.00;98221.97;4158637;28;20052;-73
2023/03/19 03:22:02;;;;;;;14.82;10.43;;;;;;;6.59;100.00;98209.81;4159120;28;20092;-72
2023/03/19 03:24:03;;;;;;;16.90;10.63;;;;;;;6.60;100.00;98213.34;4158324;28;20034;-72
2023/03/19 03:26:03;;;;;;;14.57;10.63;;;;;;;6.55;100.00;98211.69;4158352;28;20374;-72
2023/03/19 03:28:03;;;;;;;15.95;10.57;;;;;;;6.58;100.00;98219.22;4157663;28;20381;-72
2023/03/19 03:30:06;;;;;;;16.17;10.55;;;;;;;6.51;100.00;98215.50;4159244;28;20053;-72
2023/03/19 03:32:07;;;;;;;18.20;9.68;;;;;;;6.47;100.00;98213.47;4158359;28;20293;-72
2023/03/19 03:34:07;;;;;;;16.38;9.77;;;;;;;6.45;100.00;98215.78;4189336;28;20098;-72
2023/03/19 03:36:07;;;;;;;15.93;10.18;;;;;;;6.45;100.00;98220.47;4158982;28;20090;-72
2023/03/19 03:38:08;;;;;;;15.55;9.75;;;;;;;6.40;100.00;98221.56;4158782;28;20029;-72
2023/03/19 03:40:09;;;;;;;14.48;9.00;;;;;;;6.43;100.00;98220.03;4158890;28;20164;-72
2023/03/19 03:42:09;;;;;;;15.38;9.93;;;;;;;6.41;100.00;98225.09;4158614;28;20273;-72
2023/03/19 03:44:10;;;;;;;15.07;9.95;;;;;;;6.38;100.00;98228.56;4157877;28;20033;-72
2023/03/19 03:46:11;;;;;;;11.80;8.77;;;;;;;6.38;100.00;98228.56;4158972;28;20032;-72
2023/03/19 03:48:11;;;;;;;15.07;10.93;;;;;;;6.35;100.00;98237.50;4157969;28;20064;-72
2023/03/19 03:50:12;;;;;;;17.23;12.35;;;;;;;6.31;100.00;98234.69;4159103;28;20561;-72
2023/03/19 03:52:12;;;;;;;15.65;9.30;;;;;;;6.33;100.00;98239.81;4158077;28;20369;-72
2023/03/19 03:54:13;;;;;;;13.95;9.10;;;;;;;6.38;100.00;98236.81;4158041;28;20029;-72
2023/03/19 03:56:13;;;;;;;15.88;9.65;;;;;;;6.44;100.00;98246.34;4158868;28;20033;-72
2023/03/19 03:58:13;;;;;;;15.60;9.10;;;;;;;6.45;100.00;98247.94;4158184;28;20022;-72
2023/03/19 04:00:14;;;;;;;15.07;9.50;;;;;;;6.47;100.00;98238.22;4158532;28;20473;-72
2023/03/19 04:02:14;;;;;;;12.52;9.07;;;;;;;6.48;100.00;98237.06;4158154;28;20056;-72
2023/03/19 04:04:15;;;;;;;16.10;9.07;;;;;;;6.45;100.00;98235.03;4158892;28;20022;-72
2023/03/19 04:06:20;;;;;;;16.65;10.52;;;;;;;6.45;100.00;98236.97;4158453;28;20120;-72
2023/03/19 04:08:21;;;;;;;15.32;9.20;;;;;;;6.44;100.00;98229.88;4157568;28;20057;-72
2023/03/19 04:10:22;;;;;;;15.10;10.70;;;;;;;6.47;100.00;98226.44;4157963;28;20512;-72
2023/03/19 04:12:23;;;;;;;14.95;9.90;;;;;;;6.46;100.00;98219.34;4158414;28;20036;-72
2023/03/19 04:14:23;;;;;;;14.07;9.93;;;;;;;6.44;100.00;98224.38;4159098;28;20077;-72
2023/03/19 04:16:24;;;;;;;17.63;10.60;;;;;;;6.41;100.00;98227.84;4158306;28;20120;-72
2023/03/19 04:18:24;;;;;;;13.07;9.55;;;;;;;6.42;100.00;98232.97;4158355;28;20064;-72
2023/03/19 04:20:25;;;;;;;22.88;9.68;;;;;;;6.38;100.00;98236.81;4158007;28;20470;-72
2023/03/19 04:22:26;;;;;;;16.83;9.65;;;;;;;6.35;100.00;98238.31;4157707;28;20477;-72
2023/03/19 04:24:26;;;;;;;13.25;9.45;;;;;;;6.34;100.00;98238.66;4157844;28;20045;-72
2023/03/19 04:26:26;;;;;;;11.35;8.82;;;;;;;6.33;100.00;98239.81;4158116;28;20524;-72
2023/03/19 04:28:28;;;;;;;13.77;9.07;;;;;;;6.31;100.00;98234.69;4158214;28;20430;-72
2023/03/19 04:30:28;;;;;;;13.00;8.73;;;;;;;6.34;100.00;98244.94;4158404;28;20045;-72
2023/03/19 04:32:29;;;;;;;12.25;9.02;;;;;;;6.34;100.00;98250.44;4156987;28;20052;-72
2023/03/19 04:34:29;;;;;;;12.75;8.95;;;;;;;6.32;100.00;98249.22;4155750;28;20975;-72
2023/03/19 04:36:30;;;;;;;13.57;9.20;;;;;;;6.37;100.00;98248.94;4145967;28;20056;-72
2023/03/19 04:38:30;;;;;;;14.75;8.75;;;;;;;6.40;100.00;98256.47;4157857;28;20546;-72
2023/03/19 04:40:31;;;;;;;12.55;7.88;;;;;;;6.43;100.00;98244.78;4158268;28;20420;-72
2023/03/19 04:42:31;;;;;;;12.98;8.60;;;;;;;6.46;100.00;98247.63;4156864;28;20382;-72
2023/03/19 04:44:32;;;;;;;13.07;8.20;;;;;;;6.52;100.00;98239.88;4156742;28;20048;-72
2023/03/19 04:46:32;;;;;;;13.85;8.80;;;;;;;6.57;100.00;98241.56;4158110;28;20068;-72
2023/03/19 04:48:34;;;;;;;16.00;9.13;;;;;;;6.56;100.00;98239.97;4157725;28;20049;-72
2023/03/19 04:50:35;;;;;;;15.15;10.32;;;;;;;6.53;100.00;98235.19;4157976;28;20052;-72
2023/03/19 04:52:38;;;;;;;14.35;9.15;;;;;;;6.52;100.00;98242.63;4157147;28;20041;-72
2023/03/19 04:54:39;;;;;;;15.98;9.25;;;;;;;6.48;100.00;98237.06;4156940;28;20045;-72
2023/03/19 04:56:39;;;;;;;17.08;9.43;;;;;;;6.48;100.00;98239.81;4157721;28;20139;-72
2023/03/19 04:58:40;;;;;;;14.93;9.13;;;;;;;6.48;100.00;98241.75;4189238;28;20047;-72
2023/03/19 05:00:40;;;;;;;12.23;9.30;;;;;;;6.48;100.00;98234.31;4157474;28;20065;-72
2023/03/19 05:02:41;;;;;;;14.50;9.70;;;;;;;6.46;100.00;98230.34;4156581;28;20424;-72
2023/03/19 05:04:42;;;;;;;13.73;9.88;;;;;;;6.45;100.00;98232.28;4157506;28;20079;-72
2023/03/19 05:06:42;;;;;;;15.35;9.57;;;;;;;6.40;100.00;98238.03;4157677;28;20501;-72
2023/03/19 05:08:42;;;;;;;12.95;8.68;;;;;;;6.39;100.00;98241.16;4157773;28;20121;-72
2023/03/19 05:10:42;;;;;;;14.82;9.55;;;;;;;6.42;100.00;98245.94;4157732;28;20128;-72
2023/03/19 05:12:43;;;;;;;13.40;9.10;;;;;;;6.40;100.00;98249.03;4156758;28;20092;-72
2023/03/19 05:14:43;;;;;;;14.43;10.13;;;;;;;6.34;100.00;98247.69;4156974;28;20446;-72
2023/03/19 05:16:43;;;;;;;13.35;9.73;;;;;;;6.28;100.00;98249.13;4157498;28;20460;-72
2023/03/19 05:18:44;;;;;;;13.02;8.98;;;;;;;6.28;100.00;98251.06;4152773;28;20038;-72
2023/03/19 05:20:44;;;;;;;14.05;9.30;;;;;;;6.28;100.00;98246.38;4148207;28;20037;-72
2023/03/19 05:22:47;;;;;;;13.82;8.00;;;;;;;6.33;100.00;98237.88;4156566;28;20113;-72
2023/03/19 05:24:48;;;;;;;14.88;8.60;;;;;;;6.35;100.00;98246.53;4157394;28;20832;-72
2023/03/19 05:26:48;;;;;;;11.25;8.00;;;;;;;6.38;100.00;98247.81;4157389;28;20102;-72
2023/03/19 05:28:49;;;;;;;10.82;7.97;;;;;;;6.36;100.00;98259.13;4157620;28;20091;-72
2023/03/19 05:30:50;;;;;;;12.02;7.47;;;;;;;6.35;100.00;98254.78;4157344;28;20076;-72
2023/03/19 05:32:50;;;;;;;12.57;7.40;;;;;;;6.33;100.00;98261.81;4156661;28;20038;-72
2023/03/19 05:34:50;;;;;;;10.88;7.82;;;;;;;6.26;100.00;98256.91;4157727;28;20053;-72
2023/03/19 05:36:51;;;;;;;10.50;7.38;;;;;;;6.23;100.00;98260.38;4156970;28;20045;-72
2023/03/19 05:38:51;;;;;;;12.38;8.52;;;;;;;6.21;100.00;98262.69;4157320;28;20084;-72
2023/03/19 05:40:51;;;;;;;9.32;6.55;;;;;;;6.20;100.00;98261.06;4157414;28;20300;-72
2023/03/19 05:42:52;;;;;;;10.75;7.30;;;;;;;6.20;100.00;98259.13;4156625;28;20033;-72
2023/03/19 05:44:52;;;;;;;11.98;7.55;;;;;;;6.15;100.00;98256.66;4156851;28;20056;-72
2023/03/19 05:46:53;;;;;;;13.68;8.43;;;;;;;6.11;100.00;98269.50;4157137;28;20084;-72
2023/03/19 05:48:53;;;;;;;11.07;7.10;;;;;;;6.08;100.00;98272.97;4159504;28;20037;-72
2023/03/19 05:50:53;;;;;;;10.20;6.82;;;;;;;6.01;100.00;98264.53;4160389;28;20042;-72
2023/03/19 05:52:54;;;;;;;11.98;7.10;;;;;;;6.02;100.00;98276.31;4159323;28;20045;-72
2023/03/19 05:54:54;;;;;;;13.60;7.97;;;;;;;6.01;100.00;98278.25;4160461;28;20057;-72
2023/03/19 05:56:55;;;;;;;11.98;7.43;;;;;;;5.98;100.00;98270.75;4160361;28;20044;-72
2023/03/19 05:58:55;;;;;;;10.73;7.22;;;;;;;5.96;100.00;98274.97;4160078;28;20080;-72
2023/03/19 06:00:55;;;;;;;12.38;7.68;;;;;;;5.98;100.00;98280.94;4160689;28;20056;-72
2023/03/19 06:02:56;;;;;;;10.77;7.47;;;;;;;5.92;100.00;98274.88;4159368;28;20050;-72
2023/03/19 06:04:56;;;;;;;10.98;7.97;;;;;;;5.89;100.00;98281.84;4160886;28;20470;-72
2023/03/19 06:06:56;;;;;;;15.40;8.15;;;;;;;5.89;100.00;98281.84;4160427;28;20052;-72
2023/03/19 06:08:57;;;;;;;14.80;8.82;;;;;;;5.88;100.00;98283.00;4160137;28;20052;-72
2023/03/19 06:10:57;;;;;;;13.00;8.32;;;;;;;5.88;100.00;98279.47;4160034;28;20172;-72
2023/03/19 06:12:57;;;;;;;12.57;8.20;;;;;;;5.88;100.00;98282.22;4158359;28;20115;-72
2023/03/19 06:14:58;;;;;;;14.23;8.25;;;;;;;5.90;100.00;98283.47;4159810;28;20056;-72
2023/03/19 06:16:58;;;;;;;12.05;7.40;;;;;;;5.89;100.00;98286.56;4159690;28;20370;-72
2023/03/19 06:18:58;;;;;;;11.60;7.20;;;;;;;5.95;100.00;98289.84;4160236;28;20034;-72
2023/03/19 06:20:59;;;;;;;14.07;7.35;;;;;;;5.99;100.00;98290.75;4160049;28;20061;-72
2023/03/19 06:22:59;;;;;;;20.05;7.95;;;;;;;5.98;100.00;98280.94;4159006;28;20523;-72
2023/03/19 06:24:59;;;;;;;11.60;6.70;;;;;;;6.02;100.00;98285.34;4159077;28;20370;-72
2023/03/19 06:27:00;;;;;;;13.90;8.70;;;;;;;6.07;100.00;98292.53;4159856;28;20080;-72
2023/03/19 06:29:00;;;;;;;16.70;9.07;;;;;;;6.10;100.00;98289.09;4190905;28;20135;-72
2023/03/19 06:31:01;;;;;;;15.18;8.30;;;;;;;6.16;100.00;98295.91;4159987;28;20490;-73
2023/03/19 06:33:01;;;;;;;20.25;10.02;;;;;;;6.24;100.00;98299.66;4158972;28;20083;-72
2023/03/19 06:35:02;;;;;;;16.30;9.18;;;;;;;6.30;100.00;98298.25;4160178;28;20049;-72
2023/03/19 06:37:03;;;;;;;20.90;10.95;;;;;;;6.36;100.00;98296.81;4159316;28;20037;-73
2023/03/19 06:39:03;;;;;;;17.25;9.82;;;;;;;6.42;100.00;98298.94;4159469;28;20080;-73
2023/03/19 06:41:03;;;;;;;15.43;9.43;;;;;;;6.48;100.00;98304.97;4159944;28;20496;-73
2023/03/19 06:43:04;;;;;;;14.85;7.80;;;;;;;6.53;100.00;98309.38;4156570;28;20049;-73
2023/03/19 06:45:06;;;;;;;13.13;7.35;;;;;;;6.59;100.00;98318.97;4159671;28;20474;-72
2023/03/19 06:47:07;;;;;;;14.27;7.55;;;;;;;6.59;100.00;98311.53;4159293;28;20398;-72
2023/03/19 06:49:07;;;;;;;9.30;6.13;;;;;;;6.65;100.00;98320.31;4160133;28;20041;-72
2023/03/19 06:51:08;;;;;;;15.15;8.27;;;;;;;6.65;100.00;98318.34;4159718;28;20552;-72
2023/03/19 06:53:08;;;;;;;12.30;7.32;;;;;;;6.65;100.00;98326.59;4158528;28;20077;-73
2023/03/19 06:55:10;;;;;;;9.85;7.07;;;;;;;6.69;100.00;98321.97;4159955;28;20402;-72
2023/03/19 06:57:10;;;;;;;8.35;6.25;;;;;;;6.73;100.00;98322.06;4158512;28;20338;-72
2023/03/19 06:59:12;;;;;;;10.30;6.20;;;;;;;6.80;100.00;98330.50;4158875;28;20471;-72
2023/03/19 07:01:12;;;;;;;11.95;6.85;;;;;;;6.84;100.00;98325.88;4158570;28;20049;-72
2023/03/19 07:03:12;;;;;;;8.50;6.38;;;;;;;6.90;100.00;98331.91;4158898;28;20067;-73
2023/03/19 07:05:13;;;;;;;8.40;5.97;;;;;;;6.94;100.00;98327.25;4159677;28;20541;-72
2023/03/19 07:07:13;;;;;;;10.77;6.57;;;;;;;7.00;100.00;98334.88;4159323;28;20084;-72
2023/03/19 07:09:14;;;;;;;9.80;5.75;;;;;;;7.07;100.00;98338.97;4158746;28;20421;-72
2023/03/19 07:11:15;;;;;;;8.95;6.03;;;;;;;7.12;100.00;98344.22;4158976;28;20037;-72
2023/03/19 07:13:15;;;;;;;10.30;6.43;;;;;;;7.18;100.00;98345.50;4158370;28;20033;-73
2023/03/19 07:15:16;;;;;;;8.48;5.47;;;;;;;7.21;100.00;98334.59;4159437;28;20047;-73
2023/03/19 07:17:16;;;;;;;9.98;6.25;;;;;;;7.28;100.00;98339.44;4158966;28;20361;-72
2023/03/19 07:19:17;;;;;;;7.95;5.57;;;;;;;7.35;100.00;98338.81;4159046;28;20103;-72
2023/03/19 07:21:17;;;;;;;7.57;5.30;;;;;;;7.42;100.00;98348.00;4158974;28;20041;-73
2023/03/19 07:23:18;;;;;;;9.93;6.20;;;;;;;7.45;100.00;98335.50;4158750;28;20037;-73
2023/03/19 07:25:18;;;;;;;9.90;5.97;;;;;;;7.53;100.00;98337.22;4158995;28;20050;-72
2023/03/19 07:27:19;;;;;;;8.80;6.38;;;;;;;7.56;100.00;98339.28;4158896;28;20054;-73
2023/03/19 07:29:20;;;;;;;8.75;6.30;;;;;;;7.65;100.00;98341.81;4158826;28;20576;-72
2023/03/19 07:31:20;;;;;;;13.88;5.85;;;;;;;7.70;100.00;98344.28;4158890;28;20038;-72
2023/03/19 07:33:21;;;;;;;10.75;6.68;;;;;;;7.73;100.00;98349.06;4070978;28;20084;-72
2023/03/19 07:35:21;;;;;;;14.10;7.55;;;;;;;7.77;100.00;98344.41;4158302;28;20140;-72
2023/03/19 07:37:21;;;;;;;10.95;6.57;;;;;;;7.84;100.00;98350.06;4157982;28;20052;-72
2023/03/19 07:39:22;;;;;;;10.68;7.43;;;;;;;7.88;100.00;98351.75;4158370;28;20049;-72
2023/03/19 07:41:22;;;;;;;12.05;7.20;;;;;;;7.90;100.00;98348.63;4158220;28;20158;-72
2023/03/19 07:43:23;;;;;;;13.27;6.80;;;;;;;7.96;100.00;98352.69;4158388;28;20088;-72
2023/03/19 07:45:23;;;;;;;11.77;6.85;;;;;;;8.01;100.00;98357.88;4158740;28;20164;-72
2023/03/19 07:47:24;;;;;;;12.35;6.53;;;;;;;8.10;100.00;98360.41;4158412;28;20516;-72
2023/03/19 07:49:24;;;;;;;8.68;6.15;;;;;;;8.17;100.00;98366.84;4159097;28;20076;-72
2023/03/19 07:51:25;;;;;;;13.82;7.03;;;;;;;8.18;100.00;98359.38;4157793;28;20049;-72
2023/03/19 07:53:26;;;;;;;11.35;6.97;;;;;;;8.21;100.00;98363.38;4157626;28;20034;-72
2023/03/19 07:55:26;;;;;;;14.52;7.75;;;;;;;8.26;100.00;98361.09;4158406;28;20041;-72
2023/03/19 07:57:26;;;;;;;11.52;6.93;;;;;;;8.27;100.00;98362.69;4158243;28;20049;-72
2023/03/19 07:59:27;;;;;;;11.20;7.20;;;;;;;8.33;100.00;98366.75;4158799;28;20042;-72
2023/03/19 08:01:27;;;;;;;11.48;6.63;;;;;;;8.37;100.00;98358.59;4158070;28;20053;-73
2023/03/19 08:03:28;;;;;;;11.60;7.32;;;;;;;8.38;100.00;98366.50;4158221;28;20067;-72
2023/03/19 08:05:28;;;;;;;16.25;7.63;;;;;;;8.44;100.00;98358.72;4158216;28;20049;-72
2023/03/19 08:07:28;;;;;;;12.82;7.57;;;;;;;8.46;100.00;98352.84;4158525;28;20058;-72
2023/03/19 08:09:29;;;;;;;13.27;7.32;;;;;;;8.51;100.00;98358.84;4158465;28;20489;-72
2023/03/19 08:11:29;;;;;;;9.07;6.78;;;;;;;8.56;100.00;98355.78;4157619;28;20069;-72
2023/03/19 08:13:30;;;;;;;11.88;6.68;;;;;;;8.59;100.00;98359.75;4156697;28;20048;-72
2023/03/19 08:15:30;;;;;;;11.85;6.30;;;;;;;8.62;100.00;98365.34;4158328;28;20104;-72
2023/03/19 08:17:36;;;;;;;14.10;7.72;;;;;;;8.66;100.00;98368.97;4158138;28;20045;-72
2023/03/19 08:19:37;;;;;;;13.90;8.65;;;;;;;8.71;100.00;98365.09;4156313;28;20120;-72
2023/03/19 08:21:37;;;;;;;10.70;8.27;;;;;;;8.76;100.00;98364.78;4158074;28;20469;-72
2023/03/19 08:23:38;;;;;;;13.70;8.10;;;;;;;8.79;100.00;98366.03;4157107;28;20072;-72
2023/03/19 08:25:38;;;;;;;12.55;7.72;;;;;;;8.83;100.00;98372.38;4157833;28;20049;-72
2023/03/19 08:27:39;;;;;;;11.00;7.25;;;;;;;8.83;100.00;98373.19;4158315;28;20719;-72
2023/03/19 08:29:39;;;;;;;12.95;7.13;;;;;;;8.87;100.00;98371.28;4158000;28;20083;-72
2023/03/19 08:31:40;;;;;;;15.82;7.68;;;;;;;8.89;100.00;98374.47;4157727;28;20097;-72
2023/03/19 08:33:40;;;;;;;13.52;7.78;;;;;;;8.91;100.00;98371.34;4157407;28;20044;-72
2023/03/19 08:35:41;;;;;;;10.90;7.65;;;;;;;8.95;100.00;98384.03;4157988;28;20064;-72
2023/03/19 08:37:41;;;;;;;16.95;7.43;;;;;;;9.00;100.00;98378.19;4158133;28;20052;-72
2023/03/19 08:39:42;;;;;;;13.00;7.63;;;;;;;9.08;100.00;98379.09;4157473;28;20394;-72
2023/03/19 08:41:42;;;;;;;13.68;7.07;;;;;;;9.15;100.00;98386.69;4157879;28;20459;-72
2023/03/19 08:43:42;;;;;;;9.27;7.45;;;;;;;9.25;100.00;98377.78;4157462;28;20099;-71
2023/03/19 08:45:43;;;;;;;12.20;7.65;;;;;;;9.33;100.00;98389.72;4158077;28;20049;-72
2023/03/19 08:47:43;;;;;;;9.65;7.22;;;;;;;9.41;100.00;98381.19;4157966;28;20064;-72
2023/03/19 08:49:43;;;;;;;10.20;7.03;;;;;;;9.48;100.00;98388.78;4157733;28;20040;-72
2023/03/19 08:51:47;;;;;;;14.70;7.45;;;;;;;9.55;100.00;98386.91;4157808;28;20038;-72
2023/03/19 08:53:47;;;;;;;10.40;7.05;;;;;;;9.62;100.00;98385.41;4156450;28;20544;-72
2023/03/19 08:55:52;;;;;;;13.85;7.97;;;;;;;9.69;100.00;98391.84;4157859;28;20060;-72
2023/03/19 08:57:52;;;;;;;12.60;7.35;;;;;;;9.77;100.00;98393.53;4157650;28;20053;-72
2023/03/19 08:59:53;;;;;;;10.40;7.10;;;;;;;9.84;100.00;98390.84;4125401;28;20037;-72
2023/03/19 09:01:53;;;;;;;9.82;7.13;;;;;;;9.91;100.00;98389.34;4157166;28;20449;-72
2023/03/19 09:03:54;;;;;;;12.55;7.35;;;;;;;9.99;100.00;98389.06;4156969;28;20041;-72
2023/03/19 09:05:58;;;;;;;9.50;6.30;;;;;;;10.08;100.00;98389.56;4158196;28;20136;-72
2023/03/19 09:07:58;;;;;;;9.70;6.63;;;;;;;10.15;100.00;98399.91;4157550;28;20095;-72
2023/03/19 09:09:58;;;;;;;11.57;6.90;;;;;;;10.20;100.00;98401.56;4157670;28;20505;-72
2023/03/19 09:11:59;;;;;;;8.98;6.05;;;;;;;10.26;100.00;98403.66;4157521;28;20095;-72
2023/03/19 09:14:00;;;;;;;9.45;6.88;;;;;;;10.33;100.00;98402.91;4156918;28;20124;-72
2023/03/19 09:16:00;;;;;;;8.38;5.97;;;;;;;10.37;100.00;98401.78;4157057;28;20477;-72
2023/03/19 09:18:00;;;;;;;13.40;6.32;;;;;;;10.38;100.00;98405.34;4157698;28;20064;-72
2023/03/19 09:20:02;;;;;;;7.50;5.45;;;;;;;10.43;100.00;98401.44;4156715;28;20037;-72
2023/03/19 09:22:03;;;;;;;6.05;4.72;;;;;;;10.52;99.62;98399.97;4157536;28;20033;-72